sensor_id;sensor_type;location;lat;lon;timestamp;temperature;humidity
15888;DHT22;56032;51.324;12.376;2022-10-03T00:02:34;11.00;99.90
15888;DHT22;56032;51.324;12.376;2022-10-03T00:05:11;11.00;99.90
15888;DHT22;56032;51.324;12.376;2022-10-03T00:07:49;11.00;99.90
15888;DHT22;56032;51.324;12.376;2022-10-03T00:10:24;11.00;99.90
15888;DHT22;56032;51.324;12.376;2022-10-03T00:12:59;11.00;99.90
15888;DHT22;56032;51.324;12.376;2022-10-03T00:15:36;11.00;99.90
15888;DHT22;56032;51.324;12.376;2022-10-03T00:18:08;11.00;99.90
15888;DHT22;56032;51.324;12.376;2022-10-03T00:20:45;11.00;99.90
15888;DHT22;56032;51.324;12.376;2022-10-03T00:23:14;11.00;99.90
15888;DHT22;56032;51.324;12.376;2022-10-03T00:25:48;11.00;99.90
15888;DHT22;56032;51.324;12.376;2022-10-03T00:28:25;11.10;99.90
15888;DHT22;56032;51.324;12.376;2022-10-03T00:30:58;11.10;99.90
15888;DHT22;56032;51.324;12.376;2022-10-03T00:33:31;11.10;99.90
15888;DHT22;56032;51.324;12.376;2022-10-03T00:36:05;11.10;99.90
15888;DHT22;56032;51.324;12.376;2022-10-03T00:38:40;11.10;99.90
15888;DHT22;56032;51.324;12.376;2022-10-03T00:46:57;11.00;99.90
15888;DHT22;56032;51.324;12.376;2022-10-03T00:49:37;11.00;99.90
15888;DHT22;56032;51.324;12.376;2022-10-03T00:52:15;11.00;99.90
15888;DHT22;56032;51.324;12.376;2022-10-03T00:54:50;11.00;99.90
15888;DHT22;56032;51.324;12.376;2022-10-03T00:57:25;11.00;99.90
15888;DHT22;56032;51.324;12.376;2022-10-03T01:00:12;11.00;99.90
15888;DHT22;56032;51.324;12.376;2022-10-03T01:05:36;10.90;99.90
15888;DHT22;56032;51.324;12.376;2022-10-03T01:08:14;10.90;99.90
15888;DHT22;56032;51.324;12.376;2022-10-03T01:10:47;10.90;99.90
15888;DHT22;56032;51.324;12.376;2022-10-03T01:13:22;10.90;99.90
15888;DHT22;56032;51.324;12.376;2022-10-03T01:15:56;10.90;99.90
15888;DHT22;56032;51.324;12.376;2022-10-03T01:18:31;10.80;99.90
15888;DHT22;56032;51.324;12.376;2022-10-03T01:21:07;10.80;99.90
15888;DHT22;56032;51.324;12.376;2022-10-03T01:23:44;10.80;99.90
15888;DHT22;56032;51.324;12.376;2022-10-03T01:26:21;10.80;99.90
15888;DHT22;56032;51.324;12.376;2022-10-03T01:28:57;10.80;99.90
15888;DHT22;56032;51.324;12.376;2022-10-03T01:31:46;10.80;99.90
15888;DHT22;56032;51.324;12.376;2022-10-03T01:34:21;10.80;99.90
15888;DHT22;56032;51.324;12.376;2022-10-03T01:36:55;10.80;99.90
15888;DHT22;56032;51.324;12.376;2022-10-03T01:39:31;10.80;99.90
15888;DHT22;56032;51.324;12.376;2022-10-03T01:42:05;10.70;99.90
15888;DHT22;56032;51.324;12.376;2022-10-03T01:44:39;10.70;99.90
15888;DHT22;56032;51.324;12.376;2022-10-03T01:47:13;10.70;99.90
15888;DHT22;56032;51.324;12.376;2022-10-03T01:49:45;10.70;99.90
15888;DHT22;56032;51.324;12.376;2022-10-03T01:52:17;10.70;99.90
15888;DHT22;56032;51.324;12.376;2022-10-03T01:54:49;10.70;99.90
15888;DHT22;56032;51.324;12.376;2022-10-03T01:57:20;10.70;99.90
15888;DHT22;56032;51.324;12.376;2022-10-03T01:59:55;10.70;99.90
15888;DHT22;56032;51.324;12.376;2022-10-03T02:02:27;10.70;99.90
15888;DHT22;56032;51.324;12.376;2022-10-03T02:05:02;10.70;99.90
15888;DHT22;56032;51.324;12.376;2022-10-03T02:07:34;10.70;99.90
15888;DHT22;56032;51.324;12.376;2022-10-03T02:10:11;10.70;99.90
15888;DHT22;56032;51.324;12.376;2022-10-03T02:12:47;10.70;99.90
15888;DHT22;56032;51.324;12.376;2022-10-03T02:15:23;10.70;99.90
15888;DHT22;56032;51.324;12.376;2022-10-03T02:17:55;10.70;99.90
15888;DHT22;56032;51.324;12.376;2022-10-03T02:20:27;10.80;99.90
15888;DHT22;56032;51.324;12.376;2022-10-03T02:22:58;10.80;99.90
15888;DHT22;56032;51.324;12.376;2022-10-03T02:25:30;10.80;99.90
15888;DHT22;56032;51.324;12.376;2022-10-03T02:28:11;10.80;99.90
15888;DHT22;56032;51.324;12.376;2022-10-03T02:30:50;10.80;99.90
15888;DHT22;56032;51.324;12.376;2022-10-03T02:44:39;11.00;99.90
15888;DHT22;56032;51.324;12.376;2022-10-03T02:55:58;11.00;99.90
15888;DHT22;56032;51.324;12.376;2022-10-03T02:58:39;11.00;99.90
15888;DHT22;56032;51.324;12.376;2022-10-03T03:01:24;10.90;99.90
15888;DHT22;56032;51.324;12.376;2022-10-03T03:12:28;10.90;99.90
15888;DHT22;56032;51.324;12.376;2022-10-03T03:17:51;11.00;99.90
15888;DHT22;56032;51.324;12.376;2022-10-03T03:20:27;11.00;99.90
15888;DHT22;56032;51.324;12.376;2022-10-03T03:25:51;11.00;99.90
15888;DHT22;56032;51.324;12.376;2022-10-03T03:28:27;11.00;99.90
15888;DHT22;56032;51.324;12.376;2022-10-03T03:31:02;11.00;99.90
15888;DHT22;56032;51.324;12.376;2022-10-03T03:33:34;11.00;99.90
15888;DHT22;56032;51.324;12.376;2022-10-03T03:36:07;11.00;99.90
15888;DHT22;56032;51.324;12.376;2022-10-03T03:38:40;11.00;99.90
15888;DHT22;56032;51.324;12.376;2022-10-03T03:41:20;11.00;99.90
15888;DHT22;56032;51.324;12.376;2022-10-03T03:44:02;11.00;99.90
15888;DHT22;56032;51.324;12.376;2022-10-03T03:46:40;11.00;99.90
15888;DHT22;56032;51.324;12.376;2022-10-03T03:49:19;11.00;99.90
15888;DHT22;56032;51.324;12.376;2022-10-03T03:51:55;10.90;99.90
15888;DHT22;56032;51.324;12.376;2022-10-03T03:54:33;10.90;99.90
15888;DHT22;56032;51.324;12.376;2022-10-03T03:57:08;10.90;99.90
15888;DHT22;56032;51.324;12.376;2022-10-03T03:59:51;10.90;99.90
15888;DHT22;56032;51.324;12.376;2022-10-03T04:02:31;10.90;99.90
15888;DHT22;56032;51.324;12.376;2022-10-03T04:05:07;10.80;99.90
15888;DHT22;56032;51.324;12.376;2022-10-03T04:07:44;10.80;99.90
15888;DHT22;56032;51.324;12.376;2022-10-03T04:10:32;10.80;99.90
15888;DHT22;56032;51.324;12.376;2022-10-03T04:13:09;10.80;99.90
15888;DHT22;56032;51.324;12.376;2022-10-03T04:18:36;10.70;99.90
15888;DHT22;56032;51.324;12.376;2022-10-03T04:21:38;10.80;99.90
15888;DHT22;56032;51.324;12.376;2022-10-03T04:24:16;10.80;99.90
15888;DHT22;56032;51.324;12.376;2022-10-03T04:26:54;10.80;99.90
15888;DHT22;56032;51.324;12.376;2022-10-03T04:29:36;10.80;99.90
15888;DHT22;56032;51.324;12.376;2022-10-03T04:32:10;10.80;99.90
15888;DHT22;56032;51.324;12.376;2022-10-03T04:34:48;10.80;99.90
15888;DHT22;56032;51.324;12.376;2022-10-03T04:37:22;10.80;99.90
15888;DHT22;56032;51.324;12.376;2022-10-03T04:39:58;10.80;99.90
15888;DHT22;56032;51.324;12.376;2022-10-03T04:42:35;10.70;99.90
15888;DHT22;56032;51.324;12.376;2022-10-03T04:45:11;10.80;99.90
15888;DHT22;56032;51.324;12.376;2022-10-03T04:47:42;10.70;99.90
15888;DHT22;56032;51.324;12.376;2022-10-03T04:50:20;10.70;99.90
15888;DHT22;56032;51.324;12.376;2022-10-03T04:52:55;10.70;99.90
15888;DHT22;56032;51.324;12.376;2022-10-03T04:55:26;10.70;99.90
15888;DHT22;56032;51.324;12.376;2022-10-03T04:57:59;10.70;99.90
15888;DHT22;56032;51.324;12.376;2022-10-03T05:00:32;10.70;99.90
15888;DHT22;56032;51.324;12.376;2022-10-03T05:03:11;10.80;99.90
15888;DHT22;56032;51.324;12.376;2022-10-03T05:05:47;10.70;99.90
15888;DHT22;56032;51.324;12.376;2022-10-03T05:08:21;10.70;99.90
15888;DHT22;56032;51.324;12.376;2022-10-03T05:10:55;10.70;99.90
15888;DHT22;56032;51.324;12.376;2022-10-03T05:13:30;10.70;99.90
15888;DHT22;56032;51.324;12.376;2022-10-03T05:16:02;10.70;99.90
15888;DHT22;56032;51.324;12.376;2022-10-03T05:18:33;10.70;99.90
15888;DHT22;56032;51.324;12.376;2022-10-03T05:21:10;10.70;99.90
15888;DHT22;56032;51.324;12.376;2022-10-03T05:23:46;10.70;99.90
15888;DHT22;56032;51.324;12.376;2022-10-03T05:26:21;10.70;99.90
15888;DHT22;56032;51.324;12.376;2022-10-03T05:29:13;10.80;99.90
15888;DHT22;56032;51.324;12.376;2022-10-03T05:31:46;10.60;99.90
15888;DHT22;56032;51.324;12.376;2022-10-03T05:34:19;10.80;99.90
15888;DHT22;56032;51.324;12.376;2022-10-03T05:45:41;10.80;99.90
15888;DHT22;56032;51.324;12.376;2022-10-03T05:48:19;10.80;99.90
15888;DHT22;56032;51.324;12.376;2022-10-03T05:51:10;10.80;99.90
15888;DHT22;56032;51.324;12.376;2022-10-03T05:56:34;10.90;99.90
15888;DHT22;56032;51.324;12.376;2022-10-03T05:59:17;10.90;99.90
15888;DHT22;56032;51.324;12.376;2022-10-03T06:02:14;11.00;99.90
15888;DHT22;56032;51.324;12.376;2022-10-03T06:07:42;11.10;99.90
15888;DHT22;56032;51.324;12.376;2022-10-03T06:10:23;11.10;99.90
15888;DHT22;56032;51.324;12.376;2022-10-03T06:12:59;11.20;99.90
15888;DHT22;56032;51.324;12.376;2022-10-03T06:15:41;11.10;99.90
15888;DHT22;56032;51.324;12.376;2022-10-03T06:18:17;11.10;99.90
15888;DHT22;56032;51.324;12.376;2022-10-03T06:23:57;11.20;99.90
15888;DHT22;56032;51.324;12.376;2022-10-03T06:26:33;11.20;99.90
15888;DHT22;56032;51.324;12.376;2022-10-03T06:34:48;11.30;99.90
15888;DHT22;56032;51.324;12.376;2022-10-03T06:37:43;11.30;99.90
15888;DHT22;56032;51.324;12.376;2022-10-03T06:40:27;11.40;99.90
15888;DHT22;56032;51.324;12.376;2022-10-03T06:51:45;11.60;99.90
15888;DHT22;56032;51.324;12.376;2022-10-03T06:54:23;11.60;99.90
15888;DHT22;56032;51.324;12.376;2022-10-03T06:57:04;11.60;99.90
15888;DHT22;56032;51.324;12.376;2022-10-03T06:59:50;11.70;99.90
15888;DHT22;56032;51.324;12.376;2022-10-03T07:02:25;11.80;99.90
15888;DHT22;56032;51.324;12.376;2022-10-03T07:08:00;11.90;99.90
15888;DHT22;56032;51.324;12.376;2022-10-03T07:10:45;11.90;99.90
15888;DHT22;56032;51.324;12.376;2022-10-03T07:13:34;12.00;99.90
15888;DHT22;56032;51.324;12.376;2022-10-03T07:16:21;12.10;99.90
15888;DHT22;56032;51.324;12.376;2022-10-03T07:21:55;12.20;99.90
15888;DHT22;56032;51.324;12.376;2022-10-03T07:24:46;12.20;99.90
15888;DHT22;56032;51.324;12.376;2022-10-03T07:27:38;12.30;99.90
15888;DHT22;56032;51.324;12.376;2022-10-03T07:30:17;12.40;99.90
15888;DHT22;56032;51.324;12.376;2022-10-03T07:35:38;12.50;99.90
15888;DHT22;56032;51.324;12.376;2022-10-03T07:47:26;12.60;99.90
15888;DHT22;56032;51.324;12.376;2022-10-03T07:50:04;12.70;99.90
15888;DHT22;56032;51.324;12.376;2022-10-03T07:58:46;12.60;99.90
15888;DHT22;56032;51.324;12.376;2022-10-03T08:01:26;12.60;99.90
15888;DHT22;56032;51.324;12.376;2022-10-03T08:06:45;12.60;99.90
15888;DHT22;56032;51.324;12.376;2022-10-03T08:15:01;12.70;99.90
15888;DHT22;56032;51.324;12.376;2022-10-03T08:23:25;12.80;99.90
15888;DHT22;56032;51.324;12.376;2022-10-03T08:26:03;12.90;99.90
15888;DHT22;56032;51.324;12.376;2022-10-03T08:28:40;13.00;99.90
15888;DHT22;56032;51.324;12.376;2022-10-03T08:34:03;13.20;99.90
15888;DHT22;56032;51.324;12.376;2022-10-03T08:36:52;13.30;99.90
15888;DHT22;56032;51.324;12.376;2022-10-03T08:39:35;13.30;99.90
15888;DHT22;56032;51.324;12.376;2022-10-03T08:42:24;13.40;99.90
15888;DHT22;56032;51.324;12.376;2022-10-03T08:51:00;13.40;99.90
15888;DHT22;56032;51.324;12.376;2022-10-03T08:56:18;13.20;99.90
15888;DHT22;56032;51.324;12.376;2022-10-03T09:10:26;13.40;99.90
15888;DHT22;56032;51.324;12.376;2022-10-03T09:18:47;13.80;99.90
15888;DHT22;56032;51.324;12.376;2022-10-03T09:35:28;14.10;99.90
15888;DHT22;56032;51.324;12.376;2022-10-03T09:40:58;14.10;99.90
15888;DHT22;56032;51.324;12.376;2022-10-03T09:43:40;14.20;99.90
15888;DHT22;56032;51.324;12.376;2022-10-03T09:46:18;14.20;99.90
15888;DHT22;56032;51.324;12.376;2022-10-03T09:54:48;14.30;99.90
15888;DHT22;56032;51.324;12.376;2022-10-03T09:57:36;14.40;99.90
15888;DHT22;56032;51.324;12.376;2022-10-03T10:00:18;14.40;99.90
15888;DHT22;56032;51.324;12.376;2022-10-03T10:02:56;14.30;99.90
15888;DHT22;56032;51.324;12.376;2022-10-03T10:08:15;14.40;99.90
15888;DHT22;56032;51.324;12.376;2022-10-03T10:10:54;14.50;99.90
15888;DHT22;56032;51.324;12.376;2022-10-03T10:19:20;14.70;99.90
15888;DHT22;56032;51.324;12.376;2022-10-03T10:22:11;14.70;99.90
15888;DHT22;56032;51.324;12.376;2022-10-03T10:24:55;14.70;99.90
15888;DHT22;56032;51.324;12.376;2022-10-03T10:30:23;14.90;99.90
15888;DHT22;56032;51.324;12.376;2022-10-03T10:33:08;15.00;99.90
15888;DHT22;56032;51.324;12.376;2022-10-03T10:36:02;15.20;99.90
15888;DHT22;56032;51.324;12.376;2022-10-03T10:38:46;15.20;99.90
15888;DHT22;56032;51.324;12.376;2022-10-03T10:50:13;15.70;99.90
15888;DHT22;56032;51.324;12.376;2022-10-03T10:55:40;15.90;99.90
15888;DHT22;56032;51.324;12.376;2022-10-03T11:09:35;15.40;99.90
15888;DHT22;56032;51.324;12.376;2022-10-03T11:15:14;15.70;99.90
15888;DHT22;56032;51.324;12.376;2022-10-03T11:18:00;15.70;99.90
15888;DHT22;56032;51.324;12.376;2022-10-03T11:26:37;15.70;99.90
15888;DHT22;56032;51.324;12.376;2022-10-03T11:35:09;15.60;99.90
15888;DHT22;56032;51.324;12.376;2022-10-03T11:37:42;15.60;99.90
15888;DHT22;56032;51.324;12.376;2022-10-03T11:40:22;15.60;99.90
15888;DHT22;56032;51.324;12.376;2022-10-03T11:42:55;15.70;99.90
15888;DHT22;56032;51.324;12.376;2022-10-03T11:45:28;15.70;99.90
15888;DHT22;56032;51.324;12.376;2022-10-03T11:50:47;15.70;99.90
15888;DHT22;56032;51.324;12.376;2022-10-03T11:58:56;15.50;99.90
15888;DHT22;56032;51.324;12.376;2022-10-03T12:01:28;15.40;99.90
15888;DHT22;56032;51.324;12.376;2022-10-03T12:04:06;15.30;99.90
15888;DHT22;56032;51.324;12.376;2022-10-03T12:06:43;15.20;99.90
15888;DHT22;56032;51.324;12.376;2022-10-03T12:09:33;15.10;99.90
15888;DHT22;56032;51.324;12.376;2022-10-03T12:12:08;15.10;99.90
15888;DHT22;56032;51.324;12.376;2022-10-03T12:14:41;15.10;99.90
15888;DHT22;56032;51.324;12.376;2022-10-03T12:17:13;15.20;99.90
15888;DHT22;56032;51.324;12.376;2022-10-03T12:19:45;15.30;99.90
15888;DHT22;56032;51.324;12.376;2022-10-03T12:22:19;15.40;99.90
15888;DHT22;56032;51.324;12.376;2022-10-03T12:24:49;15.50;99.90
15888;DHT22;56032;51.324;12.376;2022-10-03T12:27:24;15.50;99.90
15888;DHT22;56032;51.324;12.376;2022-10-03T12:29:59;15.50;99.90
15888;DHT22;56032;51.324;12.376;2022-10-03T12:35:34;15.60;99.90
15888;DHT22;56032;51.324;12.376;2022-10-03T12:43:50;15.80;99.90
15888;DHT22;56032;51.324;12.376;2022-10-03T12:46:33;15.80;99.90
15888;DHT22;56032;51.324;12.376;2022-10-03T12:49:06;15.70;99.90
15888;DHT22;56032;51.324;12.376;2022-10-03T12:51:42;15.70;99.90
15888;DHT22;56032;51.324;12.376;2022-10-03T12:54:18;15.80;99.90
15888;DHT22;56032;51.324;12.376;2022-10-03T12:56:59;15.80;99.90
15888;DHT22;56032;51.324;12.376;2022-10-03T12:59:34;15.90;99.90
15888;DHT22;56032;51.324;12.376;2022-10-03T13:02:22;15.90;99.90
15888;DHT22;56032;51.324;12.376;2022-10-03T13:05:14;16.00;99.90
15888;DHT22;56032;51.324;12.376;2022-10-03T13:07:45;16.00;99.90
15888;DHT22;56032;51.324;12.376;2022-10-03T13:10:21;16.00;99.90
15888;DHT22;56032;51.324;12.376;2022-10-03T13:12:57;16.00;99.90
15888;DHT22;56032;51.324;12.376;2022-10-03T13:18:13;16.00;99.90
15888;DHT22;56032;51.324;12.376;2022-10-03T13:20:47;16.10;99.90
15888;DHT22;56032;51.324;12.376;2022-10-03T13:23:21;16.10;99.90
15888;DHT22;56032;51.324;12.376;2022-10-03T13:25:53;16.10;99.90
15888;DHT22;56032;51.324;12.376;2022-10-03T13:28:28;16.20;99.90
15888;DHT22;56032;51.324;12.376;2022-10-03T13:31:00;16.10;99.90
15888;DHT22;56032;51.324;12.376;2022-10-03T13:33:33;16.20;99.90
15888;DHT22;56032;51.324;12.376;2022-10-03T13:36:04;16.20;99.90
15888;DHT22;56032;51.324;12.376;2022-10-03T13:38:58;16.20;99.90
15888;DHT22;56032;51.324;12.376;2022-10-03T13:41:32;16.20;99.90
15888;DHT22;56032;51.324;12.376;2022-10-03T13:44:03;16.20;99.90
15888;DHT22;56032;51.324;12.376;2022-10-03T13:46:39;16.10;99.90
15888;DHT22;56032;51.324;12.376;2022-10-03T13:49:14;15.90;99.90
15888;DHT22;56032;51.324;12.376;2022-10-03T13:51:48;15.90;99.90
15888;DHT22;56032;51.324;12.376;2022-10-03T13:54:21;15.80;99.90
15888;DHT22;56032;51.324;12.376;2022-10-03T13:56:56;15.80;99.90
15888;DHT22;56032;51.324;12.376;2022-10-03T13:59:46;15.80;99.90
15888;DHT22;56032;51.324;12.376;2022-10-03T14:02:31;15.80;99.90
15888;DHT22;56032;51.324;12.376;2022-10-03T14:05:12;15.70;99.90
15888;DHT22;56032;51.324;12.376;2022-10-03T14:07:47;15.70;99.90
15888;DHT22;56032;51.324;12.376;2022-10-03T14:10:28;15.60;99.90
15888;DHT22;56032;51.324;12.376;2022-10-03T14:13:06;15.40;99.90
15888;DHT22;56032;51.324;12.376;2022-10-03T14:15:46;15.30;99.90
15888;DHT22;56032;51.324;12.376;2022-10-03T14:18:22;15.20;99.90
15888;DHT22;56032;51.324;12.376;2022-10-03T14:21:16;15.20;99.90
15888;DHT22;56032;51.324;12.376;2022-10-03T14:23:52;15.30;99.90
15888;DHT22;56032;51.324;12.376;2022-10-03T14:26:27;15.40;99.90
15888;DHT22;56032;51.324;12.376;2022-10-03T14:28:57;15.40;99.90
15888;DHT22;56032;51.324;12.376;2022-10-03T14:31:28;15.50;99.90
15888;DHT22;56032;51.324;12.376;2022-10-03T14:34:02;15.50;99.90
15888;DHT22;56032;51.324;12.376;2022-10-03T14:36:38;15.60;99.90
15888;DHT22;56032;51.324;12.376;2022-10-03T14:42:10;15.70;99.90
15888;DHT22;56032;51.324;12.376;2022-10-03T14:44:45;15.70;99.90
15888;DHT22;56032;51.324;12.376;2022-10-03T14:47:16;15.70;99.90
15888;DHT22;56032;51.324;12.376;2022-10-03T14:49:47;15.80;99.90
15888;DHT22;56032;51.324;12.376;2022-10-03T14:52:28;15.80;99.90
15888;DHT22;56032;51.324;12.376;2022-10-03T14:55:02;15.80;99.90
15888;DHT22;56032;51.324;12.376;2022-10-03T14:57:34;15.80;99.90
15888;DHT22;56032;51.324;12.376;2022-10-03T15:00:25;15.90;99.90
15888;DHT22;56032;51.324;12.376;2022-10-03T15:02:54;15.80;99.90
15888;DHT22;56032;51.324;12.376;2022-10-03T15:05:31;15.90;99.90
15888;DHT22;56032;51.324;12.376;2022-10-03T15:08:02;15.90;99.90
15888;DHT22;56032;51.324;12.376;2022-10-03T15:10:33;15.80;99.90
15888;DHT22;56032;51.324;12.376;2022-10-03T15:13:05;15.70;99.90
15888;DHT22;56032;51.324;12.376;2022-10-03T15:15:38;15.70;99.90
15888;DHT22;56032;51.324;12.376;2022-10-03T15:20:56;15.50;99.90
15888;DHT22;56032;51.324;12.376;2022-10-03T15:23:29;15.50;99.90
15888;DHT22;56032;51.324;12.376;2022-10-03T15:31:25;15.50;99.90
15888;DHT22;56032;51.324;12.376;2022-10-03T15:33:57;15.50;99.90
15888;DHT22;56032;51.324;12.376;2022-10-03T15:36:29;15.50;99.90
15888;DHT22;56032;51.324;12.376;2022-10-03T15:41:52;15.60;99.90
15888;DHT22;56032;51.324;12.376;2022-10-03T15:44:23;15.60;99.90
15888;DHT22;56032;51.324;12.376;2022-10-03T15:47:02;15.60;99.90
15888;DHT22;56032;51.324;12.376;2022-10-03T15:49:35;15.60;99.90
15888;DHT22;56032;51.324;12.376;2022-10-03T15:52:09;15.60;99.90
15888;DHT22;56032;51.324;12.376;2022-10-03T15:54:44;15.60;99.90
15888;DHT22;56032;51.324;12.376;2022-10-03T15:57:18;15.50;99.90
15888;DHT22;56032;51.324;12.376;2022-10-03T15:59:50;15.50;99.90
15888;DHT22;56032;51.324;12.376;2022-10-03T16:05:14;15.40;99.90
15888;DHT22;56032;51.324;12.376;2022-10-03T16:07:48;15.30;99.90
15888;DHT22;56032;51.324;12.376;2022-10-03T16:10:26;15.30;99.90
15888;DHT22;56032;51.324;12.376;2022-10-03T16:12:59;15.20;99.90
15888;DHT22;56032;51.324;12.376;2022-10-03T16:15:35;15.20;99.90
15888;DHT22;56032;51.324;12.376;2022-10-03T16:20:54;15.10;99.90
15888;DHT22;56032;51.324;12.376;2022-10-03T16:23:27;15.10;99.90
15888;DHT22;56032;51.324;12.376;2022-10-03T16:25:57;15.00;99.90
15888;DHT22;56032;51.324;12.376;2022-10-03T16:34:43;15.00;99.90
15888;DHT22;56032;51.324;12.376;2022-10-03T16:37:15;15.00;99.90
15888;DHT22;56032;51.324;12.376;2022-10-03T16:39:51;14.90;99.90
15888;DHT22;56032;51.324;12.376;2022-10-03T16:42:23;14.90;99.90
15888;DHT22;56032;51.324;12.376;2022-10-03T16:47:46;14.80;99.90
15888;DHT22;56032;51.324;12.376;2022-10-03T16:53:28;14.80;99.90
15888;DHT22;56032;51.324;12.376;2022-10-03T16:55:58;14.80;99.90
15888;DHT22;56032;51.324;12.376;2022-10-03T16:58:32;14.80;99.90
15888;DHT22;56032;51.324;12.376;2022-10-03T17:01:02;14.70;99.90
15888;DHT22;56032;51.324;12.376;2022-10-03T17:03:53;14.70;99.90
15888;DHT22;56032;51.324;12.376;2022-10-03T17:06:24;14.50;99.90
15888;DHT22;56032;51.324;12.376;2022-10-03T17:08:59;14.40;99.90
15888;DHT22;56032;51.324;12.376;2022-10-03T17:11:30;14.30;99.90
15888;DHT22;56032;51.324;12.376;2022-10-03T17:14:01;14.20;99.90
15888;DHT22;56032;51.324;12.376;2022-10-03T17:16:33;14.20;99.90
15888;DHT22;56032;51.324;12.376;2022-10-03T17:21:53;14.20;99.90
15888;DHT22;56032;51.324;12.376;2022-10-03T17:27:19;14.20;99.90
15888;DHT22;56032;51.324;12.376;2022-10-03T17:29:53;14.20;99.90
15888;DHT22;56032;51.324;12.376;2022-10-03T17:32:25;14.10;99.90
15888;DHT22;56032;51.324;12.376;2022-10-03T17:34:58;14.10;99.90
15888;DHT22;56032;51.324;12.376;2022-10-03T17:37:35;14.10;99.90
15888;DHT22;56032;51.324;12.376;2022-10-03T17:40:13;14.10;99.90
15888;DHT22;56032;51.324;12.376;2022-10-03T17:42:50;14.10;99.90
15888;DHT22;56032;51.324;12.376;2022-10-03T17:45:30;14.10;99.90
15888;DHT22;56032;51.324;12.376;2022-10-03T17:48:11;14.10;99.90
15888;DHT22;56032;51.324;12.376;2022-10-03T17:50:46;14.10;99.90
15888;DHT22;56032;51.324;12.376;2022-10-03T17:53:20;14.10;99.90
15888;DHT22;56032;51.324;12.376;2022-10-03T17:55:52;14.10;99.90
15888;DHT22;56032;51.324;12.376;2022-10-03T17:58:22;14.10;99.90
15888;DHT22;56032;51.324;12.376;2022-10-03T18:00:59;14.10;99.90
15888;DHT22;56032;51.324;12.376;2022-10-03T18:03:31;14.10;99.90
15888;DHT22;56032;51.324;12.376;2022-10-03T18:06:23;14.10;99.90
15888;DHT22;56032;51.324;12.376;2022-10-03T18:08:51;14.00;99.90
15888;DHT22;56032;51.324;12.376;2022-10-03T18:14:29;13.80;99.90
15888;DHT22;56032;51.324;12.376;2022-10-03T18:17:02;13.80;99.90
15888;DHT22;56032;51.324;12.376;2022-10-03T18:19:38;13.80;99.90
15888;DHT22;56032;51.324;12.376;2022-10-03T18:22:13;13.80;99.90
15888;DHT22;56032;51.324;12.376;2022-10-03T18:24:46;13.80;99.90
15888;DHT22;56032;51.324;12.376;2022-10-03T18:30:11;13.70;99.90
15888;DHT22;56032;51.324;12.376;2022-10-03T18:32:41;13.70;99.90
15888;DHT22;56032;51.324;12.376;2022-10-03T18:35:14;13.80;99.90
15888;DHT22;56032;51.324;12.376;2022-10-03T18:37:52;13.70;99.90
15888;DHT22;56032;51.324;12.376;2022-10-03T18:40:24;13.70;99.90
15888;DHT22;56032;51.324;12.376;2022-10-03T18:42:53;13.70;99.90
15888;DHT22;56032;51.324;12.376;2022-10-03T18:45:25;13.70;99.90
15888;DHT22;56032;51.324;12.376;2022-10-03T18:47:56;13.70;99.90
15888;DHT22;56032;51.324;12.376;2022-10-03T18:50:27;13.70;99.90
15888;DHT22;56032;51.324;12.376;2022-10-03T18:52:58;13.70;99.90
15888;DHT22;56032;51.324;12.376;2022-10-03T18:55:29;13.70;99.90
15888;DHT22;56032;51.324;12.376;2022-10-03T18:57:59;13.70;99.90
15888;DHT22;56032;51.324;12.376;2022-10-03T19:00:33;13.60;99.90
15888;DHT22;56032;51.324;12.376;2022-10-03T19:03:10;13.70;99.90
15888;DHT22;56032;51.324;12.376;2022-10-03T19:05:41;13.70;99.90
15888;DHT22;56032;51.324;12.376;2022-10-03T19:08:15;13.70;99.90
15888;DHT22;56032;51.324;12.376;2022-10-03T19:10:46;13.70;99.90
15888;DHT22;56032;51.324;12.376;2022-10-03T19:13:21;13.80;99.90
15888;DHT22;56032;51.324;12.376;2022-10-03T19:16:02;13.80;99.90
15888;DHT22;56032;51.324;12.376;2022-10-03T19:18:35;13.80;99.90
15888;DHT22;56032;51.324;12.376;2022-10-03T19:21:10;13.80;99.90
15888;DHT22;56032;51.324;12.376;2022-10-03T19:23:45;13.80;99.90
15888;DHT22;56032;51.324;12.376;2022-10-03T19:26:20;13.80;99.90
15888;DHT22;56032;51.324;12.376;2022-10-03T19:28:49;13.80;99.90
15888;DHT22;56032;51.324;12.376;2022-10-03T19:31:21;13.80;99.90
15888;DHT22;56032;51.324;12.376;2022-10-03T19:33:55;13.80;99.90
15888;DHT22;56032;51.324;12.376;2022-10-03T19:36:26;13.80;99.90
15888;DHT22;56032;51.324;12.376;2022-10-03T19:38:56;13.80;99.90
15888;DHT22;56032;51.324;12.376;2022-10-03T19:41:26;13.80;99.90
15888;DHT22;56032;51.324;12.376;2022-10-03T19:44:00;13.80;99.90
15888;DHT22;56032;51.324;12.376;2022-10-03T19:46:37;13.80;99.90
15888;DHT22;56032;51.324;12.376;2022-10-03T19:49:23;13.80;99.90
15888;DHT22;56032;51.324;12.376;2022-10-03T19:52:08;13.80;99.90
15888;DHT22;56032;51.324;12.376;2022-10-03T19:54:42;13.90;99.90
15888;DHT22;56032;51.324;12.376;2022-10-03T19:57:13;13.90;99.90
15888;DHT22;56032;51.324;12.376;2022-10-03T19:59:44;13.90;99.90
15888;DHT22;56032;51.324;12.376;2022-10-03T20:02:14;13.80;99.90
15888;DHT22;56032;51.324;12.376;2022-10-03T20:04:47;13.80;99.90
15888;DHT22;56032;51.324;12.376;2022-10-03T20:07:18;13.80;99.90
15888;DHT22;56032;51.324;12.376;2022-10-03T20:09:54;13.80;99.90
15888;DHT22;56032;51.324;12.376;2022-10-03T20:12:23;13.80;99.90
15888;DHT22;56032;51.324;12.376;2022-10-03T20:14:52;13.80;99.90
15888;DHT22;56032;51.324;12.376;2022-10-03T20:17:22;13.80;99.90
15888;DHT22;56032;51.324;12.376;2022-10-03T20:19:52;13.80;99.90
15888;DHT22;56032;51.324;12.376;2022-10-03T20:22:22;13.80;99.90
15888;DHT22;56032;51.324;12.376;2022-10-03T20:24:52;13.80;99.90
15888;DHT22;56032;51.324;12.376;2022-10-03T20:27:26;13.80;99.90
15888;DHT22;56032;51.324;12.376;2022-10-03T20:30:02;13.70;99.90
15888;DHT22;56032;51.324;12.376;2022-10-03T20:32:33;13.80;99.90
15888;DHT22;56032;51.324;12.376;2022-10-03T20:35:02;13.80;99.90
15888;DHT22;56032;51.324;12.376;2022-10-03T20:37:43;13.70;99.90
15888;DHT22;56032;51.324;12.376;2022-10-03T20:40:21;13.70;99.90
15888;DHT22;56032;51.324;12.376;2022-10-03T20:43:10;13.70;99.90
15888;DHT22;56032;51.324;12.376;2022-10-03T20:45:42;13.70;99.90
15888;DHT22;56032;51.324;12.376;2022-10-03T20:48:14;13.70;99.90
15888;DHT22;56032;51.324;12.376;2022-10-03T20:50:48;13.70;99.90